sensor_id;sensor_type;location;lat;lon;timestamp;temperature;humidity
14555;DHT22;7364;50.870;4.722;2023-05-23T00:01:07;15.10;99.90
14555;DHT22;7364;50.870;4.722;2023-05-23T00:03:34;15.20;99.90
14555;DHT22;7364;50.870;4.722;2023-05-23T00:06:06;15.20;99.90
14555;DHT22;7364;50.870;4.722;2023-05-23T00:08:33;15.20;99.90
14555;DHT22;7364;50.870;4.722;2023-05-23T00:11:01;15.20;99.90
14555;DHT22;7364;50.870;4.722;2023-05-23T00:13:28;15.10;99.90
14555;DHT22;7364;50.870;4.722;2023-05-23T00:15:58;15.20;99.90
14555;DHT22;7364;50.870;4.722;2023-05-23T00:18:27;15.20;99.90
14555;DHT22;7364;50.870;4.722;2023-05-23T00:20:55;15.30;99.90
14555;DHT22;7364;50.870;4.722;2023-05-23T00:23:25;15.30;99.90
14555;DHT22;7364;50.870;4.722;2023-05-23T00:25:54;15.30;99.90
14555;DHT22;7364;50.870;4.722;2023-05-23T00:28:23;15.40;99.90
14555;DHT22;7364;50.870;4.722;2023-05-23T00:30:50;15.40;99.90
14555;DHT22;7364;50.870;4.722;2023-05-23T00:33:18;15.40;99.90
14555;DHT22;7364;50.870;4.722;2023-05-23T00:35:48;15.30;99.90
14555;DHT22;7364;50.870;4.722;2023-05-23T00:38:15;15.30;99.90
14555;DHT22;7364;50.870;4.722;2023-05-23T00:40:44;15.20;99.90
14555;DHT22;7364;50.870;4.722;2023-05-23T00:43:13;15.20;99.90
14555;DHT22;7364;50.870;4.722;2023-05-23T00:45:40;15.20;99.90
14555;DHT22;7364;50.870;4.722;2023-05-23T00:48:08;15.20;99.90
14555;DHT22;7364;50.870;4.722;2023-05-23T00:50:36;15.10;99.90
14555;DHT22;7364;50.870;4.722;2023-05-23T00:53:04;15.10;99.90
14555;DHT22;7364;50.870;4.722;2023-05-23T00:55:31;15.10;99.90
14555;DHT22;7364;50.870;4.722;2023-05-23T00:58:00;15.20;99.90
14555;DHT22;7364;50.870;4.722;2023-05-23T01:00:28;15.20;99.90
14555;DHT22;7364;50.870;4.722;2023-05-23T01:02:55;15.30;99.90
14555;DHT22;7364;50.870;4.722;2023-05-23T01:05:23;15.20;99.90
14555;DHT22;7364;50.870;4.722;2023-05-23T01:07:51;15.30;99.90
14555;DHT22;7364;50.870;4.722;2023-05-23T01:10:20;15.30;99.90
14555;DHT22;7364;50.870;4.722;2023-05-23T01:13:00;15.30;99.90
14555;DHT22;7364;50.870;4.722;2023-05-23T01:15:35;15.30;99.90
14555;DHT22;7364;50.870;4.722;2023-05-23T01:18:07;15.20;99.90
14555;DHT22;7364;50.870;4.722;2023-05-23T01:20:44;15.10;99.90
14555;DHT22;7364;50.870;4.722;2023-05-23T01:26:31;15.10;99.90
14555;DHT22;7364;50.870;4.722;2023-05-23T01:29:08;15.10;99.90
14555;DHT22;7364;50.870;4.722;2023-05-23T01:31:41;15.10;99.90
14555;DHT22;7364;50.870;4.722;2023-05-23T01:34:09;15.00;99.90
14555;DHT22;7364;50.870;4.722;2023-05-23T01:36:41;15.00;99.90
14555;DHT22;7364;50.870;4.722;2023-05-23T01:39:08;15.00;99.90
14555;DHT22;7364;50.870;4.722;2023-05-23T01:41:36;15.10;99.90
14555;DHT22;7364;50.870;4.722;2023-05-23T01:44:05;15.20;99.90
14555;DHT22;7364;50.870;4.722;2023-05-23T01:46:34;15.30;99.90
14555;DHT22;7364;50.870;4.722;2023-05-23T01:49:05;15.30;99.90
14555;DHT22;7364;50.870;4.722;2023-05-23T01:51:34;15.40;99.90
14555;DHT22;7364;50.870;4.722;2023-05-23T01:54:01;15.40;99.90
14555;DHT22;7364;50.870;4.722;2023-05-23T01:56:29;15.40;99.90
14555;DHT22;7364;50.870;4.722;2023-05-23T01:58:57;15.40;99.90
14555;DHT22;7364;50.870;4.722;2023-05-23T02:01:33;15.30;99.90
14555;DHT22;7364;50.870;4.722;2023-05-23T02:04:00;15.40;99.90
14555;DHT22;7364;50.870;4.722;2023-05-23T02:06:28;15.20;99.90
14555;DHT22;7364;50.870;4.722;2023-05-23T02:08:56;15.20;99.90
14555;DHT22;7364;50.870;4.722;2023-05-23T02:11:23;15.20;99.90
14555;DHT22;7364;50.870;4.722;2023-05-23T02:13:51;15.20;99.90
14555;DHT22;7364;50.870;4.722;2023-05-23T02:16:19;15.20;99.90
14555;DHT22;7364;50.870;4.722;2023-05-23T02:18:49;15.10;99.90
14555;DHT22;7364;50.870;4.722;2023-05-23T02:21:17;15.10;99.90
14555;DHT22;7364;50.870;4.722;2023-05-23T02:23:45;15.10;99.90
14555;DHT22;7364;50.870;4.722;2023-05-23T02:26:12;15.00;99.90
14555;DHT22;7364;50.870;4.722;2023-05-23T02:28:39;15.00;99.90
14555;DHT22;7364;50.870;4.722;2023-05-23T02:31:06;15.00;99.90
14555;DHT22;7364;50.870;4.722;2023-05-23T02:33:34;15.10;99.90
14555;DHT22;7364;50.870;4.722;2023-05-23T02:36:03;15.00;99.90
14555;DHT22;7364;50.870;4.722;2023-05-23T02:38:30;15.00;99.90
14555;DHT22;7364;50.870;4.722;2023-05-23T02:40:57;15.00;99.90
14555;DHT22;7364;50.870;4.722;2023-05-23T02:43:25;15.00;99.90
14555;DHT22;7364;50.870;4.722;2023-05-23T02:45:52;15.00;99.90
14555;DHT22;7364;50.870;4.722;2023-05-23T02:48:20;15.00;99.90
14555;DHT22;7364;50.870;4.722;2023-05-23T02:50:47;15.10;99.90
14555;DHT22;7364;50.870;4.722;2023-05-23T02:53:16;15.00;99.90
14555;DHT22;7364;50.870;4.722;2023-05-23T02:55:44;15.00;99.90
14555;DHT22;7364;50.870;4.722;2023-05-23T02:58:11;15.10;99.90
14555;DHT22;7364;50.870;4.722;2023-05-23T03:00:38;15.00;99.90
14555;DHT22;7364;50.870;4.722;2023-05-23T03:03:09;15.10;99.90
14555;DHT22;7364;50.870;4.722;2023-05-23T03:05:36;15.00;99.90
14555;DHT22;7364;50.870;4.722;2023-05-23T03:08:03;14.90;99.90
14555;DHT22;7364;50.870;4.722;2023-05-23T03:10:32;15.00;99.90
14555;DHT22;7364;50.870;4.722;2023-05-23T03:13:00;15.00;99.90
14555;DHT22;7364;50.870;4.722;2023-05-23T03:15:28;14.90;99.90
14555;DHT22;7364;50.870;4.722;2023-05-23T03:17:56;14.90;99.90
14555;DHT22;7364;50.870;4.722;2023-05-23T03:20:23;14.90;99.90
14555;DHT22;7364;50.870;4.722;2023-05-23T03:22:51;14.90;99.90
14555;DHT22;7364;50.870;4.722;2023-05-23T03:25:18;14.90;99.90
14555;DHT22;7364;50.870;4.722;2023-05-23T03:27:47;14.90;99.90
14555;DHT22;7364;50.870;4.722;2023-05-23T03:30:14;15.00;99.90
14555;DHT22;7364;50.870;4.722;2023-05-23T03:32:42;15.10;99.90
14555;DHT22;7364;50.870;4.722;2023-05-23T03:35:09;15.10;99.90
14555;DHT22;7364;50.870;4.722;2023-05-23T03:37:36;15.00;99.90
14555;DHT22;7364;50.870;4.722;2023-05-23T03:40:04;15.00;99.90
14555;DHT22;7364;50.870;4.722;2023-05-23T03:42:33;15.00;99.90
14555;DHT22;7364;50.870;4.722;2023-05-23T03:45:05;14.90;99.90
14555;DHT22;7364;50.870;4.722;2023-05-23T03:47:33;14.80;99.90
14555;DHT22;7364;50.870;4.722;2023-05-23T03:50:00;14.70;99.90
14555;DHT22;7364;50.870;4.722;2023-05-23T03:52:27;14.70;99.90
14555;DHT22;7364;50.870;4.722;2023-05-23T03:54:54;14.60;99.90
14555;DHT22;7364;50.870;4.722;2023-05-23T03:57:22;14.70;99.90
14555;DHT22;7364;50.870;4.722;2023-05-23T03:59:49;14.70;99.90
14555;DHT22;7364;50.870;4.722;2023-05-23T04:02:18;14.70;99.90
14555;DHT22;7364;50.870;4.722;2023-05-23T04:04:45;14.70;99.90
14555;DHT22;7364;50.870;4.722;2023-05-23T04:07:13;14.60;99.90
14555;DHT22;7364;50.870;4.722;2023-05-23T04:09:41;14.60;99.90
14555;DHT22;7364;50.870;4.722;2023-05-23T04:12:09;14.50;99.90
14555;DHT22;7364;50.870;4.722;2023-05-23T04:14:36;14.50;99.90
14555;DHT22;7364;50.870;4.722;2023-05-23T04:17:04;14.50;99.90
14555;DHT22;7364;50.870;4.722;2023-05-23T04:19:35;14.50;99.90
14555;DHT22;7364;50.870;4.722;2023-05-23T04:22:02;14.60;99.90
14555;DHT22;7364;50.870;4.722;2023-05-23T04:24:29;14.50;99.90
14555;DHT22;7364;50.870;4.722;2023-05-23T04:26:57;14.50;99.90
14555;DHT22;7364;50.870;4.722;2023-05-23T04:29:24;14.60;99.90
14555;DHT22;7364;50.870;4.722;2023-05-23T04:31:52;14.60;99.90
14555;DHT22;7364;50.870;4.722;2023-05-23T04:34:19;14.70;99.90
14555;DHT22;7364;50.870;4.722;2023-05-23T04:36:49;14.80;99.90
14555;DHT22;7364;50.870;4.722;2023-05-23T04:39:18;14.90;99.90
14555;DHT22;7364;50.870;4.722;2023-05-23T04:41:46;14.90;99.90
14555;DHT22;7364;50.870;4.722;2023-05-23T04:44:13;15.00;99.90
14555;DHT22;7364;50.870;4.722;2023-05-23T04:46:40;15.10;99.90
14555;DHT22;7364;50.870;4.722;2023-05-23T04:49:10;15.20;99.90
14555;DHT22;7364;50.870;4.722;2023-05-23T04:51:39;15.20;99.90
14555;DHT22;7364;50.870;4.722;2023-05-23T04:54:07;15.30;99.90
14555;DHT22;7364;50.870;4.722;2023-05-23T04:56:35;15.20;99.90
14555;DHT22;7364;50.870;4.722;2023-05-23T04:59:02;15.20;99.90
14555;DHT22;7364;50.870;4.722;2023-05-23T05:01:29;15.00;99.90
14555;DHT22;7364;50.870;4.722;2023-05-23T05:03:57;15.00;99.90
14555;DHT22;7364;50.870;4.722;2023-05-23T05:06:24;15.10;99.90
14555;DHT22;7364;50.870;4.722;2023-05-23T05:08:52;15.00;99.90
14555;DHT22;7364;50.870;4.722;2023-05-23T05:11:20;15.10;99.90
14555;DHT22;7364;50.870;4.722;2023-05-23T05:13:48;15.20;99.90
14555;DHT22;7364;50.870;4.722;2023-05-23T05:16:15;15.00;99.90
14555;DHT22;7364;50.870;4.722;2023-05-23T05:18:42;15.00;99.90
14555;DHT22;7364;50.870;4.722;2023-05-23T05:21:09;15.10;99.90
14555;DHT22;7364;50.870;4.722;2023-05-23T05:23:36;15.00;99.90
14555;DHT22;7364;50.870;4.722;2023-05-23T05:26:04;14.90;99.90
14555;DHT22;7364;50.870;4.722;2023-05-23T05:28:34;14.90;99.90
14555;DHT22;7364;50.870;4.722;2023-05-23T05:31:01;14.80;99.90
14555;DHT22;7364;50.870;4.722;2023-05-23T05:33:29;14.90;99.90
14555;DHT22;7364;50.870;4.722;2023-05-23T05:36:01;14.70;99.90
14555;DHT22;7364;50.870;4.722;2023-05-23T05:38:28;14.80;99.90
14555;DHT22;7364;50.870;4.722;2023-05-23T05:40:55;14.90;99.90
14555;DHT22;7364;50.870;4.722;2023-05-23T05:43:24;15.00;99.90
14555;DHT22;7364;50.870;4.722;2023-05-23T05:45:55;15.00;99.90
14555;DHT22;7364;50.870;4.722;2023-05-23T05:48:22;15.00;99.90
14555;DHT22;7364;50.870;4.722;2023-05-23T05:50:50;15.00;99.90
14555;DHT22;7364;50.870;4.722;2023-05-23T05:53:17;15.10;99.90
14555;DHT22;7364;50.870;4.722;2023-05-23T05:55:44;15.30;99.90
14555;DHT22;7364;50.870;4.722;2023-05-23T05:58:11;15.40;99.90
14555;DHT22;7364;50.870;4.722;2023-05-23T06:00:38;15.30;99.90
14555;DHT22;7364;50.870;4.722;2023-05-23T06:03:09;15.20;99.90
14555;DHT22;7364;50.870;4.722;2023-05-23T06:05:37;15.00;99.90
14555;DHT22;7364;50.870;4.722;2023-05-23T06:08:05;15.00;99.90
14555;DHT22;7364;50.870;4.722;2023-05-23T06:10:32;14.90;99.90
14555;DHT22;7364;50.870;4.722;2023-05-23T06:12:59;14.90;99.90
14555;DHT22;7364;50.870;4.722;2023-05-23T06:15:27;14.80;99.90
14555;DHT22;7364;50.870;4.722;2023-05-23T06:17:54;14.80;99.90
14555;DHT22;7364;50.870;4.722;2023-05-23T06:20:23;14.70;99.90
14555;DHT22;7364;50.870;4.722;2023-05-23T06:22:50;14.70;99.90
14555;DHT22;7364;50.870;4.722;2023-05-23T06:25:17;14.80;99.90
14555;DHT22;7364;50.870;4.722;2023-05-23T06:27:44;14.80;99.90
14555;DHT22;7364;50.870;4.722;2023-05-23T06:30:13;14.70;99.90
14555;DHT22;7364;50.870;4.722;2023-05-23T06:32:40;14.70;99.90
14555;DHT22;7364;50.870;4.722;2023-05-23T06:35:08;14.70;99.90
14555;DHT22;7364;50.870;4.722;2023-05-23T06:37:37;14.80;99.90
14555;DHT22;7364;50.870;4.722;2023-05-23T06:40:11;14.70;99.90
14555;DHT22;7364;50.870;4.722;2023-05-23T06:42:39;14.70;99.90
14555;DHT22;7364;50.870;4.722;2023-05-23T06:45:07;14.80;99.90
14555;DHT22;7364;50.870;4.722;2023-05-23T06:47:35;14.90;99.90
14555;DHT22;7364;50.870;4.722;2023-05-23T06:50:03;14.90;99.90
14555;DHT22;7364;50.870;4.722;2023-05-23T06:52:30;14.90;99.90
14555;DHT22;7364;50.870;4.722;2023-05-23T06:54:59;14.90;99.90
14555;DHT22;7364;50.870;4.722;2023-05-23T06:57:26;14.90;99.90
14555;DHT22;7364;50.870;4.722;2023-05-23T06:59:54;14.90;99.90
14555;DHT22;7364;50.870;4.722;2023-05-23T07:02:22;14.80;99.90
14555;DHT22;7364;50.870;4.722;2023-05-23T07:04:49;14.90;99.90
14555;DHT22;7364;50.870;4.722;2023-05-23T07:07:16;15.00;99.90
14555;DHT22;7364;50.870;4.722;2023-05-23T07:09:43;15.20;99.90
14555;DHT22;7364;50.870;4.722;2023-05-23T07:12:12;15.30;99.90
14555;DHT22;7364;50.870;4.722;2023-05-23T07:14:39;15.20;99.90
14555;DHT22;7364;50.870;4.722;2023-05-23T07:17:07;15.30;99.90
14555;DHT22;7364;50.870;4.722;2023-05-23T07:19:34;15.20;99.90
14555;DHT22;7364;50.870;4.722;2023-05-23T07:22:01;15.20;99.90
14555;DHT22;7364;50.870;4.722;2023-05-23T07:24:28;15.00;99.90
14555;DHT22;7364;50.870;4.722;2023-05-23T07:26:56;15.10;99.90
14555;DHT22;7364;50.870;4.722;2023-05-23T07:29:27;15.30;99.90
14555;DHT22;7364;50.870;4.722;2023-05-23T07:31:55;15.50;99.90
14555;DHT22;7364;50.870;4.722;2023-05-23T07:34:24;15.50;99.90
14555;DHT22;7364;50.870;4.722;2023-05-23T07:36:57;15.50;99.90
14555;DHT22;7364;50.870;4.722;2023-05-23T07:39:27;15.50;99.90
14555;DHT22;7364;50.870;4.722;2023-05-23T07:41:54;15.60;99.90
14555;DHT22;7364;50.870;4.722;2023-05-23T07:44:21;15.50;99.90
14555;DHT22;7364;50.870;4.722;2023-05-23T07:46:50;15.50;99.90
14555;DHT22;7364;50.870;4.722;2023-05-23T07:49:17;15.50;99.90
14555;DHT22;7364;50.870;4.722;2023-05-23T07:51:45;15.60;99.90
14555;DHT22;7364;50.870;4.722;2023-05-23T07:54:12;15.70;99.90
14555;DHT22;7364;50.870;4.722;2023-05-23T07:56:39;15.60;99.90
14555;DHT22;7364;50.870;4.722;2023-05-23T07:59:06;15.70;99.90
14555;DHT22;7364;50.870;4.722;2023-05-23T08:01:35;15.70;99.90
14555;DHT22;7364;50.870;4.722;2023-05-23T08:04:03;15.70;99.90
14555;DHT22;7364;50.870;4.722;2023-05-23T08:06:31;15.80;99.90
14555;DHT22;7364;50.870;4.722;2023-05-23T08:08:58;15.90;99.90
14555;DHT22;7364;50.870;4.722;2023-05-23T08:11:25;15.70;99.90
14555;DHT22;7364;50.870;4.722;2023-05-23T08:13:54;15.80;99.90
14555;DHT22;7364;50.870;4.722;2023-05-23T08:16:22;15.90;99.90
14555;DHT22;7364;50.870;4.722;2023-05-23T08:18:49;16.00;99.90
14555;DHT22;7364;50.870;4.722;2023-05-23T08:21:18;16.20;99.90
14555;DHT22;7364;50.870;4.722;2023-05-23T08:23:45;16.00;99.90
14555;DHT22;7364;50.870;4.722;2023-05-23T08:26:12;15.90;99.90
14555;DHT22;7364;50.870;4.722;2023-05-23T08:28:40;16.00;99.90
14555;DHT22;7364;50.870;4.722;2023-05-23T08:31:07;16.00;99.90
14555;DHT22;7364;50.870;4.722;2023-05-23T08:33:34;16.10;99.90
14555;DHT22;7364;50.870;4.722;2023-05-23T08:36:02;16.10;99.90
14555;DHT22;7364;50.870;4.722;2023-05-23T08:38:30;16.20;99.90
14555;DHT22;7364;50.870;4.722;2023-05-23T08:41:00;16.40;99.90
14555;DHT22;7364;50.870;4.722;2023-05-23T08:43:28;16.70;99.90
14555;DHT22;7364;50.870;4.722;2023-05-23T08:45:55;16.90;99.90
14555;DHT22;7364;50.870;4.722;2023-05-23T08:48:24;17.00;99.90
14555;DHT22;7364;50.870;4.722;2023-05-23T08:50:53;17.10;99.90
14555;DHT22;7364;50.870;4.722;2023-05-23T08:53:22;17.10;99.90
14555;DHT22;7364;50.870;4.722;2023-05-23T08:55:54;17.00;99.90
14555;DHT22;7364;50.870;4.722;2023-05-23T08:58:27;16.70;99.90
14555;DHT22;7364;50.870;4.722;2023-05-23T09:00:55;16.80;99.90
14555;DHT22;7364;50.870;4.722;2023-05-23T09:03:23;16.90;99.90
14555;DHT22;7364;50.870;4.722;2023-05-23T09:05:53;17.00;99.90
14555;DHT22;7364;50.870;4.722;2023-05-23T09:08:20;16.90;99.90
14555;DHT22;7364;50.870;4.722;2023-05-23T09:10:49;17.00;99.90
14555;DHT22;7364;50.870;4.722;2023-05-23T09:13:19;17.10;99.90
14555;DHT22;7364;50.870;4.722;2023-05-23T09:15:56;17.20;99.90
14555;DHT22;7364;50.870;4.722;2023-05-23T09:18:25;17.30;99.90
14555;DHT22;7364;50.870;4.722;2023-05-23T09:20:55;17.40;99.90
14555;DHT22;7364;50.870;4.722;2023-05-23T09:23:23;17.50;99.90
14555;DHT22;7364;50.870;4.722;2023-05-23T09:25:50;17.50;99.90
14555;DHT22;7364;50.870;4.722;2023-05-23T09:28:20;17.50;99.90
14555;DHT22;7364;50.870;4.722;2023-05-23T09:30:57;17.30;99.90
14555;DHT22;7364;50.870;4.722;2023-05-23T09:33:33;17.30;99.90
14555;DHT22;7364;50.870;4.722;2023-05-23T09:36:02;17.40;99.90
14555;DHT22;7364;50.870;4.722;2023-05-23T09:38:29;17.50;99.90
14555;DHT22;7364;50.870;4.722;2023-05-23T09:40:58;17.60;99.90
14555;DHT22;7364;50.870;4.722;2023-05-23T09:43:28;17.60;99.90
14555;DHT22;7364;50.870;4.722;2023-05-23T09:46:00;17.70;99.90
14555;DHT22;7364;50.870;4.722;2023-05-23T09:48:28;18.00;99.90
14555;DHT22;7364;50.870;4.722;2023-05-23T09:50:56;18.40;99.90
14555;DHT22;7364;50.870;4.722;2023-05-23T09:53:23;18.40;99.90
14555;DHT22;7364;50.870;4.722;2023-05-23T09:55:51;18.20;99.90
14555;DHT22;7364;50.870;4.722;2023-05-23T09:58:19;17.90;99.90
14555;DHT22;7364;50.870;4.722;2023-05-23T10:00:52;17.90;99.90
14555;DHT22;7364;50.870;4.722;2023-05-23T10:03:23;17.60;99.90
14555;DHT22;7364;50.870;4.722;2023-05-23T10:05:56;17.40;99.90
14555;DHT22;7364;50.870;4.722;2023-05-23T10:08:24;17.20;99.90
14555;DHT22;7364;50.870;4.722;2023-05-23T10:13:59;17.40;99.90
14555;DHT22;7364;50.870;4.722;2023-05-23T10:16:35;17.40;99.90
14555;DHT22;7364;50.870;4.722;2023-05-23T10:19:09;17.30;99.90
14555;DHT22;7364;50.870;4.722;2023-05-23T10:21:42;17.20;99.90
14555;DHT22;7364;50.870;4.722;2023-05-23T10:24:11;17.20;99.90
14555;DHT22;7364;50.870;4.722;2023-05-23T10:26:39;17.30;99.90
14555;DHT22;7364;50.870;4.722;2023-05-23T10:29:07;17.20;99.90
14555;DHT22;7364;50.870;4.722;2023-05-23T10:31:36;17.20;99.90
14555;DHT22;7364;50.870;4.722;2023-05-23T10:34:09;17.40;99.90
14555;DHT22;7364;50.870;4.722;2023-05-23T10:36:45;17.80;99.90
14555;DHT22;7364;50.870;4.722;2023-05-23T10:39:21;17.70;99.90
14555;DHT22;7364;50.870;4.722;2023-05-23T10:41:57;17.90;99.90
14555;DHT22;7364;50.870;4.722;2023-05-23T10:44:28;17.80;99.90
14555;DHT22;7364;50.870;4.722;2023-05-23T10:46:58;18.00;99.90
14555;DHT22;7364;50.870;4.722;2023-05-23T10:49:40;18.10;99.90
14555;DHT22;7364;50.870;4.722;2023-05-23T10:52:09;18.40;99.90
14555;DHT22;7364;50.870;4.722;2023-05-23T10:54:42;18.60;99.90
14555;DHT22;7364;50.870;4.722;2023-05-23T10:57:11;18.50;99.90
14555;DHT22;7364;50.870;4.722;2023-05-23T10:59:39;18.60;99.90
14555;DHT22;7364;50.870;4.722;2023-05-23T11:02:13;18.90;99.90
14555;DHT22;7364;50.870;4.722;2023-05-23T11:04:41;19.10;99.90
14555;DHT22;7364;50.870;4.722;2023-05-23T11:07:27;19.20;99.90
14555;DHT22;7364;50.870;4.722;2023-05-23T11:10:09;19.80;99.90
14555;DHT22;7364;50.870;4.722;2023-05-23T11:12:37;20.20;99.00
14555;DHT22;7364;50.870;4.722;2023-05-23T11:15:19;20.50;98.00
14555;DHT22;7364;50.870;4.722;2023-05-23T11:17:55;20.60;96.90
14555;DHT22;7364;50.870;4.722;2023-05-23T11:20:24;20.20;97.00
14555;DHT22;7364;50.870;4.722;2023-05-23T11:22:54;19.70;98.20
14555;DHT22;7364;50.870;4.722;2023-05-23T11:25:39;19.50;98.50
14555;DHT22;7364;50.870;4.722;2023-05-23T11:28:07;19.50;98.10
14555;DHT22;7364;50.870;4.722;2023-05-23T11:30:35;19.40;98.40
14555;DHT22;7364;50.870;4.722;2023-05-23T11:33:07;20.10;98.20
14555;DHT22;7364;50.870;4.722;2023-05-23T11:35:39;21.90;97.10
14555;DHT22;7364;50.870;4.722;2023-05-23T11:38:08;22.50;93.70
14555;DHT22;7364;50.870;4.722;2023-05-23T11:40:37;22.00;93.30
14555;DHT22;7364;50.870;4.722;2023-05-23T11:43:05;21.60;93.90
14555;DHT22;7364;50.870;4.722;2023-05-23T11:45:34;21.70;94.20
14555;DHT22;7364;50.870;4.722;2023-05-23T11:48:10;21.20;94.00
14555;DHT22;7364;50.870;4.722;2023-05-23T11:50:44;20.90;93.90
14555;DHT22;7364;50.870;4.722;2023-05-23T11:53:12;20.60;94.50
14555;DHT22;7364;50.870;4.722;2023-05-23T11:55:48;20.50;92.90
14555;DHT22;7364;50.870;4.722;2023-05-23T11:58:16;20.50;92.20
14555;DHT22;7364;50.870;4.722;2023-05-23T12:00:43;20.80;92.00
14555;DHT22;7364;50.870;4.722;2023-05-23T12:03:12;20.70;92.30
14555;DHT22;7364;50.870;4.722;2023-05-23T12:05:42;20.60;92.50
14555;DHT22;7364;50.870;4.722;2023-05-23T12:08:11;20.60;93.10
14555;DHT22;7364;50.870;4.722;2023-05-23T12:10:48;21.20;91.90
14555;DHT22;7364;50.870;4.722;2023-05-23T12:13:16;20.70;90.70
14555;DHT22;7364;50.870;4.722;2023-05-23T12:15:43;21.10;90.80
14555;DHT22;7364;50.870;4.722;2023-05-23T12:18:13;21.40;89.80
14555;DHT22;7364;50.870;4.722;2023-05-23T12:20:41;21.30;90.70
14555;DHT22;7364;50.870;4.722;2023-05-23T12:23:08;21.00;90.80
14555;DHT22;7364;50.870;4.722;2023-05-23T12:25:43;21.90;90.80
14555;DHT22;7364;50.870;4.722;2023-05-23T12:28:11;22.40;89.00
14555;DHT22;7364;50.870;4.722;2023-05-23T12:30:42;22.40;88.80
14555;DHT22;7364;50.870;4.722;2023-05-23T12:33:10;22.20;89.30
14555;DHT22;7364;50.870;4.722;2023-05-23T12:35:42;21.90;90.00
14555;DHT22;7364;50.870;4.722;2023-05-23T12:38:14;21.70;90.10
14555;DHT22;7364;50.870;4.722;2023-05-23T12:40:43;21.90;90.40
14555;DHT22;7364;50.870;4.722;2023-05-23T12:43:10;22.90;87.30
14555;DHT22;7364;50.870;4.722;2023-05-23T12:45:37;24.20;81.20
14555;DHT22;7364;50.870;4.722;2023-05-23T12:48:05;25.00;79.30
14555;DHT22;7364;50.870;4.722;2023-05-23T12:50:33;25.30;76.50
14555;DHT22;7364;50.870;4.722;2023-05-23T12:53:02;24.80;74.40
14555;DHT22;7364;50.870;4.722;2023-05-23T12:55:29;24.10;75.90
14555;DHT22;7364;50.870;4.722;2023-05-23T12:57:56;24.30;77.20
14555;DHT22;7364;50.870;4.722;2023-05-23T13:00:24;24.80;77.20
14555;DHT22;7364;50.870;4.722;2023-05-23T13:02:55;26.60;72.70
14555;DHT22;7364;50.870;4.722;2023-05-23T13:05:22;27.70;71.40
14555;DHT22;7364;50.870;4.722;2023-05-23T13:07:49;28.10;67.20
14555;DHT22;7364;50.870;4.722;2023-05-23T13:10:17;27.70;69.60
14555;DHT22;7364;50.870;4.722;2023-05-23T13:12:45;26.50;66.40
14555;DHT22;7364;50.870;4.722;2023-05-23T13:15:12;24.60;70.30
14555;DHT22;7364;50.870;4.722;2023-05-23T13:17:39;24.60;72.10
14555;DHT22;7364;50.870;4.722;2023-05-23T13:20:07;25.30;70.50
14555;DHT22;7364;50.870;4.722;2023-05-23T13:22:35;25.20;69.70
14555;DHT22;7364;50.870;4.722;2023-05-23T13:25:03;25.20;69.50
14555;DHT22;7364;50.870;4.722;2023-05-23T13:27:32;25.10;68.90
14555;DHT22;7364;50.870;4.722;2023-05-23T13:29:59;25.00;71.50
14555;DHT22;7364;50.870;4.722;2023-05-23T13:32:26;24.80;71.20
14555;DHT22;7364;50.870;4.722;2023-05-23T13:34:54;24.30;72.60
14555;DHT22;7364;50.870;4.722;2023-05-23T13:37:21;24.40;71.20
14555;DHT22;7364;50.870;4.722;2023-05-23T13:39:48;25.10;71.40
14555;DHT22;7364;50.870;4.722;2023-05-23T13:42:15;26.10;68.50
14555;DHT22;7364;50.870;4.722;2023-05-23T13:44:44;26.80;66.90
14555;DHT22;7364;50.870;4.722;2023-05-23T13:47:12;27.00;65.60
14555;DHT22;7364;50.870;4.722;2023-05-23T13:49:40;28.40;64.60
14555;DHT22;7364;50.870;4.722;2023-05-23T13:52:07;28.00;64.40
14555;DHT22;7364;50.870;4.722;2023-05-23T13:54:35;27.80;61.50
14555;DHT22;7364;50.870;4.722;2023-05-23T13:57:02;28.40;62.10
14555;DHT22;7364;50.870;4.722;2023-05-23T13:59:30;27.50;62.50
14555;DHT22;7364;50.870;4.722;2023-05-23T14:02:01;27.10;62.40
14555;DHT22;7364;50.870;4.722;2023-05-23T14:04:28;27.20;62.20
14555;DHT22;7364;50.870;4.722;2023-05-23T14:06:56;27.20;63.40
14555;DHT22;7364;50.870;4.722;2023-05-23T14:09:23;28.60;61.90
14555;DHT22;7364;50.870;4.722;2023-05-23T14:11:50;28.30;62.20
14555;DHT22;7364;50.870;4.722;2023-05-23T14:14:18;27.60;60.70
14555;DHT22;7364;50.870;4.722;2023-05-23T14:16:45;26.20;62.20
14555;DHT22;7364;50.870;4.722;2023-05-23T14:19:14;25.40;66.10
14555;DHT22;7364;50.870;4.722;2023-05-23T14:21:41;25.70;66.00
14555;DHT22;7364;50.870;4.722;2023-05-23T14:24:08;25.60;65.80
14555;DHT22;7364;50.870;4.722;2023-05-23T14:26:36;26.30;64.20
14555;DHT22;7364;50.870;4.722;2023-05-23T14:29:03;27.90;61.00
14555;DHT22;7364;50.870;4.722;2023-05-23T14:31:31;29.10;58.30
14555;DHT22;7364;50.870;4.722;2023-05-23T14:33:58;28.40;57.30
14555;DHT22;7364;50.870;4.722;2023-05-23T14:36:27;28.80;57.10
14555;DHT22;7364;50.870;4.722;2023-05-23T14:38:54;27.70;59.50
14555;DHT22;7364;50.870;4.722;2023-05-23T14:41:21;26.80;60.00
14555;DHT22;7364;50.870;4.722;2023-05-23T14:43:49;28.20;58.60
14555;DHT22;7364;50.870;4.722;2023-05-23T14:46:16;28.80;57.00
14555;DHT22;7364;50.870;4.722;2023-05-23T14:48:44;29.60;55.40
14555;DHT22;7364;50.870;4.722;2023-05-23T14:51:11;28.80;56.00
14555;DHT22;7364;50.870;4.722;2023-05-23T14:53:40;28.50;56.60
14555;DHT22;7364;50.870;4.722;2023-05-23T14:56:09;28.70;57.20
14555;DHT22;7364;50.870;4.722;2023-05-23T14:58:37;28.80;57.10
14555;DHT22;7364;50.870;4.722;2023-05-23T15:01:10;28.50;57.20
14555;DHT22;7364;50.870;4.722;2023-05-23T15:03:38;28.60;55.50
14555;DHT22;7364;50.870;4.722;2023-05-23T15:06:06;29.20;54.90
14555;DHT22;7364;50.870;4.722;2023-05-23T15:08:33;29.90;54.80
14555;DHT22;7364;50.870;4.722;2023-05-23T15:11:02;29.80;53.60
14555;DHT22;7364;50.870;4.722;2023-05-23T15:13:29;28.60;54.90
14555;DHT22;7364;50.870;4.722;2023-05-23T15:15:56;27.70;56.90
14555;DHT22;7364;50.870;4.722;2023-05-23T15:18:23;26.40;59.60
14555;DHT22;7364;50.870;4.722;2023-05-23T15:20:50;25.20;60.50
14555;DHT22;7364;50.870;4.722;2023-05-23T15:23:18;24.50;62.30
14555;DHT22;7364;50.870;4.722;2023-05-23T15:25:47;24.30;63.80
14555;DHT22;7364;50.870;4.722;2023-05-23T15:28:16;23.80;63.30
14555;DHT22;7364;50.870;4.722;2023-05-23T15:30:43;23.50;64.20
14555;DHT22;7364;50.870;4.722;2023-05-23T15:33:10;23.10;64.70
14555;DHT22;7364;50.870;4.722;2023-05-23T15:35:38;23.20;65.70
14555;DHT22;7364;50.870;4.722;2023-05-23T15:38:05;23.30;65.50
14555;DHT22;7364;50.870;4.722;2023-05-23T15:40:32;23.70;66.10
14555;DHT22;7364;50.870;4.722;2023-05-23T15:42:59;23.80;63.60
14555;DHT22;7364;50.870;4.722;2023-05-23T15:45:28;24.00;64.60
14555;DHT22;7364;50.870;4.722;2023-05-23T15:47:55;23.90;63.50
14555;DHT22;7364;50.870;4.722;2023-05-23T15:50:22;24.30;64.30
14555;DHT22;7364;50.870;4.722;2023-05-23T15:52:49;24.30;65.50
14555;DHT22;7364;50.870;4.722;2023-05-23T15:55:16;24.00;64.50
14555;DHT22;7364;50.870;4.722;2023-05-23T15:57:43;23.80;64.30
14555;DHT22;7364;50.870;4.722;2023-05-23T16:00:12;23.50;65.30